Pataskala, Ohio
Current Conditions -  °F | °C
As of 7:54 AM on Friday 19 Dec 2014 (Local Time) from KVTA Reporting Station
Overcast Overcast  
Wind Chill: 29°   Ceiling: 2200
Heat Index: 29°   Visibility: 10mi
Dew Point: 23°   Wind: 3mph
Humidity: 78%   Direction: 280°W
Pressure: 30.24"   Gusts: NA
Location:  40°N, 82.67°W
Report Text: KVTA 191254Z AUTO 28003KT 10SM OVC022 M02/M05 A3024 RMK AO2 SLP251 T10171050
Loading
Personal Weather Stations






























Interactive Weather Map New forecast layout! Learn more

10-Day Weather Forecast

Advertisements
Track Severe Weather on mobile